sensor_id;sensor_type;location;lat;lon;timestamp;P1;P2;P0
69224;PMS1003;56333;51.306;17.056;2024-01-25T00:01:10;8.60;2.30;
69224;PMS1003;56333;51.306;17.056;2024-01-25T00:02:34;10.00;2.20;
69224;PMS1003;56333;51.306;17.056;2024-01-25T00:03:58;11.00;3.90;
69224;PMS1003;56333;51.306;17.056;2024-01-25T00:05:23;9.30;3.10;
69224;PMS1003;56333;51.306;17.056;2024-01-25T00:06:47;9.30;3.10;
69224;PMS1003;56333;51.306;17.056;2024-01-25T00:08:11;9.60;2.90;
69224;PMS1003;56333;51.306;17.056;2024-01-25T00:09:35;9.30;3.10;
69224;PMS1003;56333;51.306;17.056;2024-01-25T00:11:02;7.50;2.40;
69224;PMS1003;56333;51.306;17.056;2024-01-25T00:12:26;11.20;3.70;
69224;PMS1003;56333;51.306;17.056;2024-01-25T00:13:50;8.00;2.60;
69224;PMS1003;56333;51.306;17.056;2024-01-25T00:15:15;9.70;3.00;
69224;PMS1003;56333;51.306;17.056;2024-01-25T00:16:42;9.40;2.90;
69224;PMS1003;56333;51.306;17.056;2024-01-25T00:18:06;7.60;2.60;
69224;PMS1003;56333;51.306;17.056;2024-01-25T00:19:30;8.20;2.60;
69224;PMS1003;56333;51.306;17.056;2024-01-25T00:20:54;11.00;3.20;
69224;PMS1003;56333;51.306;17.056;2024-01-25T00:22:19;6.90;2.30;
69224;PMS1003;56333;51.306;17.056;2024-01-25T00:23:43;10.10;2.40;
69224;PMS1003;56333;51.306;17.056;2024-01-25T00:25:08;9.10;2.70;
69224;PMS1003;56333;51.306;17.056;2024-01-25T00:26:32;9.40;3.00;
69224;PMS1003;56333;51.306;17.056;2024-01-25T00:27:56;8.50;2.70;
69224;PMS1003;56333;51.306;17.056;2024-01-25T00:29:20;7.60;2.30;
69224;PMS1003;56333;51.306;17.056;2024-01-25T00:30:45;8.80;2.90;
69224;PMS1003;56333;51.306;17.056;2024-01-25T00:32:09;12.50;4.30;
69224;PMS1003;56333;51.306;17.056;2024-01-25T00:33:33;11.60;3.30;
69224;PMS1003;56333;51.306;17.056;2024-01-25T00:34:59;11.50;2.60;
69224;PMS1003;56333;51.306;17.056;2024-01-25T00:36:26;10.70;2.80;
69224;PMS1003;56333;51.306;17.056;2024-01-25T00:37:52;8.90;2.60;
69224;PMS1003;56333;51.306;17.056;2024-01-25T00:39:23;9.40;2.60;
69224;PMS1003;56333;51.306;17.056;2024-01-25T00:40:48;8.30;2.40;
69224;PMS1003;56333;51.306;17.056;2024-01-25T00:42:14;9.20;2.40;
69224;PMS1003;56333;51.306;17.056;2024-01-25T00:43:40;8.00;2.80;
69224;PMS1003;56333;51.306;17.056;2024-01-25T00:45:08;11.40;3.80;
69224;PMS1003;56333;51.306;17.056;2024-01-25T00:46:35;10.00;3.30;
69224;PMS1003;56333;51.306;17.056;2024-01-25T00:48:01;10.30;2.80;
69224;PMS1003;56333;51.306;17.056;2024-01-25T00:49:27;12.90;4.10;
69224;PMS1003;56333;51.306;17.056;2024-01-25T00:50:53;11.50;3.00;
69224;PMS1003;56333;51.306;17.056;2024-01-25T00:52:20;11.70;3.00;
69224;PMS1003;56333;51.306;17.056;2024-01-25T00:53:46;11.00;3.40;
69224;PMS1003;56333;51.306;17.056;2024-01-25T00:55:15;8.00;2.50;
69224;PMS1003;56333;51.306;17.056;2024-01-25T00:56:41;13.20;4.50;
69224;PMS1003;56333;51.306;17.056;2024-01-25T00:58:08;9.80;4.00;
69224;PMS1003;56333;51.306;17.056;2024-01-25T00:59:34;9.50;3.10;
69224;PMS1003;56333;51.306;17.056;2024-01-25T01:01:02;12.70;4.00;
69224;PMS1003;56333;51.306;17.056;2024-01-25T01:02:27;11.80;3.70;
69224;PMS1003;56333;51.306;17.056;2024-01-25T01:03:55;14.20;4.20;
69224;PMS1003;56333;51.306;17.056;2024-01-25T01:05:24;10.80;3.40;
69224;PMS1003;56333;51.306;17.056;2024-01-25T01:06:51;13.90;3.80;
69224;PMS1003;56333;51.306;17.056;2024-01-25T01:08:17;11.10;3.50;
69224;PMS1003;56333;51.306;17.056;2024-01-25T01:09:42;10.00;3.40;
69224;PMS1003;56333;51.306;17.056;2024-01-25T01:11:06;9.80;3.30;
69224;PMS1003;56333;51.306;17.056;2024-01-25T01:12:31;9.80;3.00;
69224;PMS1003;56333;51.306;17.056;2024-01-25T01:13:55;12.20;3.30;
69224;PMS1003;56333;51.306;17.056;2024-01-25T01:15:20;12.90;3.80;
69224;PMS1003;56333;51.306;17.056;2024-01-25T01:16:44;10.70;2.90;
69224;PMS1003;56333;51.306;17.056;2024-01-25T01:18:08;9.90;2.60;
69224;PMS1003;56333;51.306;17.056;2024-01-25T01:19:32;10.60;3.10;
69224;PMS1003;56333;51.306;17.056;2024-01-25T01:20:56;11.90;3.30;
69224;PMS1003;56333;51.306;17.056;2024-01-25T01:22:20;9.60;3.10;
69224;PMS1003;56333;51.306;17.056;2024-01-25T01:23:44;10.50;3.00;
69224;PMS1003;56333;51.306;17.056;2024-01-25T01:25:09;9.90;3.40;
69224;PMS1003;56333;51.306;17.056;2024-01-25T01:26:33;12.20;3.70;
69224;PMS1003;56333;51.306;17.056;2024-01-25T01:27:58;9.80;2.90;
69224;PMS1003;56333;51.306;17.056;2024-01-25T01:29:22;11.90;2.80;
69224;PMS1003;56333;51.306;17.056;2024-01-25T01:30:46;8.80;3.30;
69224;PMS1003;56333;51.306;17.056;2024-01-25T01:32:10;10.10;2.90;
69224;PMS1003;56333;51.306;17.056;2024-01-25T01:33:35;12.30;3.20;
69224;PMS1003;56333;51.306;17.056;2024-01-25T01:34:59;12.10;3.70;
69224;PMS1003;56333;51.306;17.056;2024-01-25T01:36:23;13.80;3.60;
69224;PMS1003;56333;51.306;17.056;2024-01-25T01:37:47;10.70;3.30;
69224;PMS1003;56333;51.306;17.056;2024-01-25T01:39:11;11.80;3.60;
69224;PMS1003;56333;51.306;17.056;2024-01-25T01:40:35;9.40;2.80;
69224;PMS1003;56333;51.306;17.056;2024-01-25T01:42:00;14.10;3.40;
69224;PMS1003;56333;51.306;17.056;2024-01-25T01:43:24;11.70;3.20;
69224;PMS1003;56333;51.306;17.056;2024-01-25T01:44:48;11.50;3.70;
69224;PMS1003;56333;51.306;17.056;2024-01-25T01:46:28;9.40;3.30;
69224;PMS1003;56333;51.306;17.056;2024-01-25T01:47:57;8.50;2.80;
69224;PMS1003;56333;51.306;17.056;2024-01-25T01:49:22;10.40;3.30;
69224;PMS1003;56333;51.306;17.056;2024-01-25T01:50:47;11.40;3.30;
69224;PMS1003;56333;51.306;17.056;2024-01-25T01:55:22;12.10;3.20;
69224;PMS1003;56333;51.306;17.056;2024-01-25T01:56:46;10.20;2.80;
69224;PMS1003;56333;51.306;17.056;2024-01-25T01:58:11;10.50;2.80;
69224;PMS1003;56333;51.306;17.056;2024-01-25T01:59:35;11.20;3.10;
69224;PMS1003;56333;51.306;17.056;2024-01-25T02:01:00;11.50;3.00;
69224;PMS1003;56333;51.306;17.056;2024-01-25T02:02:25;9.00;2.90;
69224;PMS1003;56333;51.306;17.056;2024-01-25T02:03:50;11.90;3.00;
69224;PMS1003;56333;51.306;17.056;2024-01-25T02:05:14;10.90;3.20;
69224;PMS1003;56333;51.306;17.056;2024-01-25T02:06:38;9.10;2.80;
69224;PMS1003;56333;51.306;17.056;2024-01-25T02:08:05;15.80;3.20;
69224;PMS1003;56333;51.306;17.056;2024-01-25T02:09:30;9.90;2.80;
69224;PMS1003;56333;51.306;17.056;2024-01-25T02:10:54;12.20;3.70;
69224;PMS1003;56333;51.306;17.056;2024-01-25T02:12:18;12.30;3.40;
69224;PMS1003;56333;51.306;17.056;2024-01-25T02:13:43;9.90;2.10;
69224;PMS1003;56333;51.306;17.056;2024-01-25T02:15:08;9.70;2.90;
69224;PMS1003;56333;51.306;17.056;2024-01-25T02:16:32;10.80;3.40;
69224;PMS1003;56333;51.306;17.056;2024-01-25T02:17:57;10.70;2.80;
69224;PMS1003;56333;51.306;17.056;2024-01-25T02:19:21;9.10;2.70;
69224;PMS1003;56333;51.306;17.056;2024-01-25T02:20:45;8.70;2.60;
69224;PMS1003;56333;51.306;17.056;2024-01-25T02:22:09;11.70;2.70;
69224;PMS1003;56333;51.306;17.056;2024-01-25T02:23:33;9.90;2.70;
69224;PMS1003;56333;51.306;17.056;2024-01-25T02:24:58;11.10;2.90;
69224;PMS1003;56333;51.306;17.056;2024-01-25T02:26:23;7.50;2.30;
69224;PMS1003;56333;51.306;17.056;2024-01-25T02:27:47;9.40;2.20;
69224;PMS1003;56333;51.306;17.056;2024-01-25T02:29:11;11.00;3.00;
69224;PMS1003;56333;51.306;17.056;2024-01-25T02:30:35;10.20;2.70;
69224;PMS1003;56333;51.306;17.056;2024-01-25T02:31:59;9.00;2.50;
69224;PMS1003;56333;51.306;17.056;2024-01-25T02:33:24;10.00;2.60;
69224;PMS1003;56333;51.306;17.056;2024-01-25T02:34:49;10.80;2.60;
69224;PMS1003;56333;51.306;17.056;2024-01-25T02:36:13;11.40;2.70;
69224;PMS1003;56333;51.306;17.056;2024-01-25T02:37:37;9.70;2.30;
69224;PMS1003;56333;51.306;17.056;2024-01-25T02:39:02;13.80;3.10;
69224;PMS1003;56333;51.306;17.056;2024-01-25T02:40:27;10.90;2.60;
69224;PMS1003;56333;51.306;17.056;2024-01-25T02:41:51;13.80;3.20;
69224;PMS1003;56333;51.306;17.056;2024-01-25T02:43:15;11.60;2.80;
69224;PMS1003;56333;51.306;17.056;2024-01-25T02:44:39;10.40;2.70;
69224;PMS1003;56333;51.306;17.056;2024-01-25T02:46:03;10.00;2.70;
69224;PMS1003;56333;51.306;17.056;2024-01-25T02:47:27;9.10;2.60;
69224;PMS1003;56333;51.306;17.056;2024-01-25T02:48:51;9.20;2.60;
69224;PMS1003;56333;51.306;17.056;2024-01-25T02:50:15;9.20;2.60;
69224;PMS1003;56333;51.306;17.056;2024-01-25T02:51:39;9.30;2.50;
69224;PMS1003;56333;51.306;17.056;2024-01-25T02:53:04;8.20;2.60;
69224;PMS1003;56333;51.306;17.056;2024-01-25T02:54:28;12.00;3.10;
69224;PMS1003;56333;51.306;17.056;2024-01-25T02:55:52;9.80;2.80;
69224;PMS1003;56333;51.306;17.056;2024-01-25T02:57:17;13.30;4.20;
69224;PMS1003;56333;51.306;17.056;2024-01-25T02:58:42;11.20;3.10;
69224;PMS1003;56333;51.306;17.056;2024-01-25T03:00:11;11.80;3.50;
69224;PMS1003;56333;51.306;17.056;2024-01-25T03:01:41;10.10;3.00;
69224;PMS1003;56333;51.306;17.056;2024-01-25T03:03:07;9.90;3.60;
69224;PMS1003;56333;51.306;17.056;2024-01-25T03:04:31;14.90;3.20;
69224;PMS1003;56333;51.306;17.056;2024-01-25T03:05:55;9.60;2.90;
69224;PMS1003;56333;51.306;17.056;2024-01-25T03:07:19;10.30;3.50;
69224;PMS1003;56333;51.306;17.056;2024-01-25T03:08:43;9.60;3.10;
69224;PMS1003;56333;51.306;17.056;2024-01-25T03:10:09;10.00;2.90;
69224;PMS1003;56333;51.306;17.056;2024-01-25T03:11:33;9.10;3.00;
69224;PMS1003;56333;51.306;17.056;2024-01-25T03:12:57;9.40;2.90;
69224;PMS1003;56333;51.306;17.056;2024-01-25T03:14:21;10.50;2.70;
69224;PMS1003;56333;51.306;17.056;2024-01-25T03:15:46;11.60;3.00;
69224;PMS1003;56333;51.306;17.056;2024-01-25T03:17:10;12.10;3.30;
69224;PMS1003;56333;51.306;17.056;2024-01-25T03:18:35;10.80;2.80;
69224;PMS1003;56333;51.306;17.056;2024-01-25T03:19:59;10.30;2.80;
69224;PMS1003;56333;51.306;17.056;2024-01-25T03:21:23;10.40;2.90;
69224;PMS1003;56333;51.306;17.056;2024-01-25T03:22:47;7.50;2.60;
69224;PMS1003;56333;51.306;17.056;2024-01-25T03:24:11;9.90;2.80;
69224;PMS1003;56333;51.306;17.056;2024-01-25T03:25:36;11.90;3.70;
69224;PMS1003;56333;51.306;17.056;2024-01-25T03:27:00;10.80;3.20;
69224;PMS1003;56333;51.306;17.056;2024-01-25T03:28:24;11.00;3.40;
69224;PMS1003;56333;51.306;17.056;2024-01-25T03:29:48;10.20;3.00;
69224;PMS1003;56333;51.306;17.056;2024-01-25T03:31:12;9.30;2.80;
69224;PMS1003;56333;51.306;17.056;2024-01-25T03:32:36;9.80;2.90;
69224;PMS1003;56333;51.306;17.056;2024-01-25T03:34:00;11.60;3.40;
69224;PMS1003;56333;51.306;17.056;2024-01-25T03:35:24;12.60;3.20;
69224;PMS1003;56333;51.306;17.056;2024-01-25T03:36:49;11.00;3.10;
69224;PMS1003;56333;51.306;17.056;2024-01-25T03:38:15;15.30;3.70;
69224;PMS1003;56333;51.306;17.056;2024-01-25T03:39:39;9.80;3.10;
69224;PMS1003;56333;51.306;17.056;2024-01-25T03:41:04;9.50;2.90;
69224;PMS1003;56333;51.306;17.056;2024-01-25T03:42:29;12.30;3.70;
69224;PMS1003;56333;51.306;17.056;2024-01-25T03:43:53;10.50;3.10;
69224;PMS1003;56333;51.306;17.056;2024-01-25T03:45:17;10.60;3.00;
69224;PMS1003;56333;51.306;17.056;2024-01-25T03:46:42;11.10;3.20;
69224;PMS1003;56333;51.306;17.056;2024-01-25T03:48:07;9.20;2.60;
69224;PMS1003;56333;51.306;17.056;2024-01-25T03:49:31;11.30;2.70;
69224;PMS1003;56333;51.306;17.056;2024-01-25T03:50:55;10.00;2.60;
69224;PMS1003;56333;51.306;17.056;2024-01-25T03:52:19;10.70;3.60;
69224;PMS1003;56333;51.306;17.056;2024-01-25T03:53:43;9.70;2.70;
69224;PMS1003;56333;51.306;17.056;2024-01-25T03:55:08;12.00;3.20;
69224;PMS1003;56333;51.306;17.056;2024-01-25T03:56:32;12.70;3.20;
69224;PMS1003;56333;51.306;17.056;2024-01-25T03:57:56;8.90;2.60;
69224;PMS1003;56333;51.306;17.056;2024-01-25T03:59:20;11.00;3.10;
69224;PMS1003;56333;51.306;17.056;2024-01-25T04:00:45;12.40;3.10;
69224;PMS1003;56333;51.306;17.056;2024-01-25T04:02:09;11.80;2.90;
69224;PMS1003;56333;51.306;17.056;2024-01-25T04:03:33;13.10;3.50;
69224;PMS1003;56333;51.306;17.056;2024-01-25T04:04:57;11.20;3.90;
69224;PMS1003;56333;51.306;17.056;2024-01-25T04:06:22;11.00;3.50;
69224;PMS1003;56333;51.306;17.056;2024-01-25T04:07:46;10.20;2.70;
69224;PMS1003;56333;51.306;17.056;2024-01-25T04:09:10;10.40;3.10;
69224;PMS1003;56333;51.306;17.056;2024-01-25T04:10:34;8.90;2.50;
69224;PMS1003;56333;51.306;17.056;2024-01-25T04:11:59;9.10;2.60;
69224;PMS1003;56333;51.306;17.056;2024-01-25T04:13:23;10.90;2.70;
69224;PMS1003;56333;51.306;17.056;2024-01-25T04:14:47;11.30;3.00;
69224;PMS1003;56333;51.306;17.056;2024-01-25T04:16:14;11.30;2.80;
69224;PMS1003;56333;51.306;17.056;2024-01-25T04:17:37;11.90;3.10;
69224;PMS1003;56333;51.306;17.056;2024-01-25T04:19:01;9.20;2.80;
69224;PMS1003;56333;51.306;17.056;2024-01-25T04:20:25;8.30;2.60;
69224;PMS1003;56333;51.306;17.056;2024-01-25T04:21:49;9.90;2.90;
69224;PMS1003;56333;51.306;17.056;2024-01-25T04:23:13;11.00;2.90;
69224;PMS1003;56333;51.306;17.056;2024-01-25T04:24:37;8.40;2.80;
69224;PMS1003;56333;51.306;17.056;2024-01-25T04:26:02;8.60;2.80;
69224;PMS1003;56333;51.306;17.056;2024-01-25T04:27:26;11.80;3.20;
69224;PMS1003;56333;51.306;17.056;2024-01-25T04:28:50;7.00;2.30;
69224;PMS1003;56333;51.306;17.056;2024-01-25T04:30:15;10.50;2.90;
69224;PMS1003;56333;51.306;17.056;2024-01-25T04:31:44;8.20;2.50;
69224;PMS1003;56333;51.306;17.056;2024-01-25T04:33:08;9.30;2.90;
69224;PMS1003;56333;51.306;17.056;2024-01-25T04:34:33;8.00;2.20;
69224;PMS1003;56333;51.306;17.056;2024-01-25T04:35:57;8.10;2.10;
69224;PMS1003;56333;51.306;17.056;2024-01-25T04:37:21;9.30;2.60;
69224;PMS1003;56333;51.306;17.056;2024-01-25T04:38:45;10.90;2.70;
69224;PMS1003;56333;51.306;17.056;2024-01-25T04:40:11;10.00;2.50;
69224;PMS1003;56333;51.306;17.056;2024-01-25T04:41:35;9.60;2.40;
69224;PMS1003;56333;51.306;17.056;2024-01-25T04:43:00;8.00;2.70;
69224;PMS1003;56333;51.306;17.056;2024-01-25T04:44:23;9.80;2.80;
69224;PMS1003;56333;51.306;17.056;2024-01-25T04:45:47;7.10;2.30;
69224;PMS1003;56333;51.306;17.056;2024-01-25T04:47:10;10.80;3.00;
69224;PMS1003;56333;51.306;17.056;2024-01-25T04:48:34;8.20;2.40;
69224;PMS1003;56333;51.306;17.056;2024-01-25T04:49:59;10.90;2.50;
69224;PMS1003;56333;51.306;17.056;2024-01-25T04:51:23;10.20;2.80;
69224;PMS1003;56333;51.306;17.056;2024-01-25T04:52:48;10.70;2.50;
69224;PMS1003;56333;51.306;17.056;2024-01-25T04:54:12;7.70;2.10;
69224;PMS1003;56333;51.306;17.056;2024-01-25T04:55:37;8.70;2.90;
69224;PMS1003;56333;51.306;17.056;2024-01-25T04:57:01;9.90;3.00;
69224;PMS1003;56333;51.306;17.056;2024-01-25T04:58:29;7.60;2.10;
69224;PMS1003;56333;51.306;17.056;2024-01-25T04:59:53;7.90;2.40;
69224;PMS1003;56333;51.306;17.056;2024-01-25T05:01:17;9.40;2.50;
69224;PMS1003;56333;51.306;17.056;2024-01-25T05:02:41;7.50;2.30;
69224;PMS1003;56333;51.306;17.056;2024-01-25T05:04:06;7.50;2.20;
69224;PMS1003;56333;51.306;17.056;2024-01-25T05:05:30;9.30;2.30;
69224;PMS1003;56333;51.306;17.056;2024-01-25T05:06:54;10.90;2.80;
69224;PMS1003;56333;51.306;17.056;2024-01-25T05:08:18;8.20;2.30;
69224;PMS1003;56333;51.306;17.056;2024-01-25T05:09:42;9.80;2.80;
69224;PMS1003;56333;51.306;17.056;2024-01-25T05:11:06;6.60;2.10;
69224;PMS1003;56333;51.306;17.056;2024-01-25T05:12:31;8.60;2.40;
69224;PMS1003;56333;51.306;17.056;2024-01-25T05:13:55;6.90;2.30;
69224;PMS1003;56333;51.306;17.056;2024-01-25T05:15:20;8.10;2.70;
69224;PMS1003;56333;51.306;17.056;2024-01-25T05:16:44;9.50;2.90;
69224;PMS1003;56333;51.306;17.056;2024-01-25T05:18:08;9.30;2.60;
69224;PMS1003;56333;51.306;17.056;2024-01-25T05:19:32;7.50;2.40;
69224;PMS1003;56333;51.306;17.056;2024-01-25T05:20:56;8.90;2.20;
69224;PMS1003;56333;51.306;17.056;2024-01-25T05:22:21;8.80;2.10;
69224;PMS1003;56333;51.306;17.056;2024-01-25T05:23:45;7.80;2.50;
69224;PMS1003;56333;51.306;17.056;2024-01-25T05:25:09;8.80;2.40;
69224;PMS1003;56333;51.306;17.056;2024-01-25T05:26:33;9.40;2.60;
69224;PMS1003;56333;51.306;17.056;2024-01-25T05:27:57;8.70;2.50;
69224;PMS1003;56333;51.306;17.056;2024-01-25T05:29:22;9.70;2.60;
69224;PMS1003;56333;51.306;17.056;2024-01-25T05:30:46;8.20;2.60;
69224;PMS1003;56333;51.306;17.056;2024-01-25T05:32:10;9.80;2.60;
69224;PMS1003;56333;51.306;17.056;2024-01-25T05:33:34;7.80;2.40;
69224;PMS1003;56333;51.306;17.056;2024-01-25T05:34:58;9.20;2.70;
69224;PMS1003;56333;51.306;17.056;2024-01-25T05:36:22;12.70;2.80;
69224;PMS1003;56333;51.306;17.056;2024-01-25T05:37:46;10.50;2.60;
69224;PMS1003;56333;51.306;17.056;2024-01-25T05:39:10;8.00;2.50;
69224;PMS1003;56333;51.306;17.056;2024-01-25T05:40:35;8.90;2.50;
69224;PMS1003;56333;51.306;17.056;2024-01-25T05:41:59;10.60;2.80;
69224;PMS1003;56333;51.306;17.056;2024-01-25T05:43:24;8.90;2.50;
69224;PMS1003;56333;51.306;17.056;2024-01-25T05:44:48;8.30;2.40;
69224;PMS1003;56333;51.306;17.056;2024-01-25T05:46:11;7.80;2.20;
69224;PMS1003;56333;51.306;17.056;2024-01-25T05:47:36;10.80;2.70;
69224;PMS1003;56333;51.306;17.056;2024-01-25T05:49:00;8.90;2.70;
69224;PMS1003;56333;51.306;17.056;2024-01-25T05:50:24;6.70;2.00;
69224;PMS1003;56333;51.306;17.056;2024-01-25T05:51:48;7.90;2.50;
69224;PMS1003;56333;51.306;17.056;2024-01-25T05:53:12;7.80;2.40;
69224;PMS1003;56333;51.306;17.056;2024-01-25T05:54:36;9.50;2.60;
69224;PMS1003;56333;51.306;17.056;2024-01-25T05:56:01;9.60;2.50;
69224;PMS1003;56333;51.306;17.056;2024-01-25T05:57:26;8.70;2.60;
69224;PMS1003;56333;51.306;17.056;2024-01-25T05:58:50;9.80;2.60;
69224;PMS1003;56333;51.306;17.056;2024-01-25T06:00:16;8.50;2.40;
69224;PMS1003;56333;51.306;17.056;2024-01-25T06:01:42;10.30;2.90;
69224;PMS1003;56333;51.306;17.056;2024-01-25T06:03:06;10.00;2.50;
69224;PMS1003;56333;51.306;17.056;2024-01-25T06:04:30;11.40;3.10;
69224;PMS1003;56333;51.306;17.056;2024-01-25T06:05:55;9.10;2.40;
69224;PMS1003;56333;51.306;17.056;2024-01-25T06:07:20;7.80;2.70;
69224;PMS1003;56333;51.306;17.056;2024-01-25T06:08:44;8.80;2.80;
69224;PMS1003;56333;51.306;17.056;2024-01-25T06:10:10;10.70;4.70;
69224;PMS1003;56333;51.306;17.056;2024-01-25T06:11:34;12.80;3.20;
69224;PMS1003;56333;51.306;17.056;2024-01-25T06:12:59;9.70;2.70;
69224;PMS1003;56333;51.306;17.056;2024-01-25T06:14:23;10.70;2.90;
69224;PMS1003;56333;51.306;17.056;2024-01-25T06:15:47;11.40;2.90;
69224;PMS1003;56333;51.306;17.056;2024-01-25T06:17:12;12.70;3.00;
69224;PMS1003;56333;51.306;17.056;2024-01-25T06:18:37;7.20;2.10;
69224;PMS1003;56333;51.306;17.056;2024-01-25T06:20:01;9.90;2.90;
69224;PMS1003;56333;51.306;17.056;2024-01-25T06:21:27;10.80;2.80;
69224;PMS1003;56333;51.306;17.056;2024-01-25T06:22:51;9.50;2.90;
69224;PMS1003;56333;51.306;17.056;2024-01-25T06:24:15;10.30;2.90;
69224;PMS1003;56333;51.306;17.056;2024-01-25T06:25:39;8.30;2.60;
69224;PMS1003;56333;51.306;17.056;2024-01-25T06:27:04;11.40;2.60;
69224;PMS1003;56333;51.306;17.056;2024-01-25T06:28:28;12.50;2.70;
69224;PMS1003;56333;51.306;17.056;2024-01-25T06:29:52;10.20;2.60;
69224;PMS1003;56333;51.306;17.056;2024-01-25T06:31:16;9.90;2.40;
69224;PMS1003;56333;51.306;17.056;2024-01-25T06:32:40;10.00;2.60;
69224;PMS1003;56333;51.306;17.056;2024-01-25T06:34:04;8.90;2.90;
69224;PMS1003;56333;51.306;17.056;2024-01-25T06:35:28;10.60;2.80;
69224;PMS1003;56333;51.306;17.056;2024-01-25T06:36:52;9.20;2.70;
69224;PMS1003;56333;51.306;17.056;2024-01-25T06:38:16;9.30;2.40;
69224;PMS1003;56333;51.306;17.056;2024-01-25T06:39:41;10.30;2.80;
69224;PMS1003;56333;51.306;17.056;2024-01-25T06:41:05;13.00;3.10;
69224;PMS1003;56333;51.306;17.056;2024-01-25T06:42:29;9.60;2.50;
69224;PMS1003;56333;51.306;17.056;2024-01-25T06:43:54;10.00;2.60;
69224;PMS1003;56333;51.306;17.056;2024-01-25T06:45:17;11.70;2.80;
69224;PMS1003;56333;51.306;17.056;2024-01-25T06:46:42;12.10;2.90;
69224;PMS1003;56333;51.306;17.056;2024-01-25T06:48:08;11.40;2.80;
69224;PMS1003;56333;51.306;17.056;2024-01-25T06:49:32;10.20;2.60;
69224;PMS1003;56333;51.306;17.056;2024-01-25T06:50:56;12.20;3.00;
69224;PMS1003;56333;51.306;17.056;2024-01-25T06:52:20;8.60;2.50;
69224;PMS1003;56333;51.306;17.056;2024-01-25T06:53:44;9.70;2.70;
69224;PMS1003;56333;51.306;17.056;2024-01-25T06:55:11;9.10;2.70;
69224;PMS1003;56333;51.306;17.056;2024-01-25T06:56:36;10.70;2.70;
69224;PMS1003;56333;51.306;17.056;2024-01-25T06:58:00;11.90;3.40;
69224;PMS1003;56333;51.306;17.056;2024-01-25T06:59:24;10.40;2.90;
69224;PMS1003;56333;51.306;17.056;2024-01-25T07:00:49;8.90;2.40;
69224;PMS1003;56333;51.306;17.056;2024-01-25T07:02:13;12.30;3.00;
69224;PMS1003;56333;51.306;17.056;2024-01-25T07:03:37;10.60;2.80;
69224;PMS1003;56333;51.306;17.056;2024-01-25T07:05:01;14.90;3.40;
69224;PMS1003;56333;51.306;17.056;2024-01-25T07:06:26;10.20;2.60;
69224;PMS1003;56333;51.306;17.056;2024-01-25T07:07:51;11.60;3.00;
69224;PMS1003;56333;51.306;17.056;2024-01-25T07:09:15;8.70;2.60;
69224;PMS1003;56333;51.306;17.056;2024-01-25T07:10:39;11.00;3.00;
69224;PMS1003;56333;51.306;17.056;2024-01-25T07:12:06;9.50;2.70;
69224;PMS1003;56333;51.306;17.056;2024-01-25T07:13:30;9.80;2.50;
69224;PMS1003;56333;51.306;17.056;2024-01-25T07:14:54;12.20;2.80;
69224;PMS1003;56333;51.306;17.056;2024-01-25T07:16:19;10.90;2.80;
69224;PMS1003;56333;51.306;17.056;2024-01-25T07:17:44;11.00;2.90;
69224;PMS1003;56333;51.306;17.056;2024-01-25T07:19:07;11.10;2.80;
69224;PMS1003;56333;51.306;17.056;2024-01-25T07:20:32;10.70;2.80;
69224;PMS1003;56333;51.306;17.056;2024-01-25T07:21:56;10.90;2.90;
69224;PMS1003;56333;51.306;17.056;2024-01-25T07:23:22;12.90;3.20;
69224;PMS1003;56333;51.306;17.056;2024-01-25T07:24:48;9.70;2.90;
69224;PMS1003;56333;51.306;17.056;2024-01-25T07:26:17;12.30;3.20;
69224;PMS1003;56333;51.306;17.056;2024-01-25T07:27:44;12.90;2.90;
69224;PMS1003;56333;51.306;17.056;2024-01-25T07:29:09;11.20;2.80;
69224;PMS1003;56333;51.306;17.056;2024-01-25T07:30:33;8.90;2.50;
69224;PMS1003;56333;51.306;17.056;2024-01-25T07:31:57;10.60;2.80;
69224;PMS1003;56333;51.306;17.056;2024-01-25T07:33:21;11.50;3.10;
69224;PMS1003;56333;51.306;17.056;2024-01-25T07:34:46;12.30;2.90;
69224;PMS1003;56333;51.306;17.056;2024-01-25T07:36:10;11.90;2.80;
69224;PMS1003;56333;51.306;17.056;2024-01-25T07:37:34;10.60;2.50;
69224;PMS1003;56333;51.306;17.056;2024-01-25T07:38:58;15.60;5.90;
69224;PMS1003;56333;51.306;17.056;2024-01-25T07:40:22;16.50;5.70;
69224;PMS1003;56333;51.306;17.056;2024-01-25T07:41:46;27.10;12.50;
69224;PMS1003;56333;51.306;17.056;2024-01-25T07:43:10;20.40;9.50;
69224;PMS1003;56333;51.306;17.056;2024-01-25T07:44:34;29.30;15.00;
69224;PMS1003;56333;51.306;17.056;2024-01-25T07:45:58;25.70;14.50;
69224;PMS1003;56333;51.306;17.056;2024-01-25T07:47:23;15.40;5.40;
69224;PMS1003;56333;51.306;17.056;2024-01-25T07:48:47;14.00;5.90;
69224;PMS1003;56333;51.306;17.056;2024-01-25T07:50:12;13.80;3.70;
69224;PMS1003;56333;51.306;17.056;2024-01-25T07:51:36;12.20;3.90;
69224;PMS1003;56333;51.306;17.056;2024-01-25T07:53:00;14.10;4.90;
69224;PMS1003;56333;51.306;17.056;2024-01-25T07:54:25;13.60;4.30;
69224;PMS1003;56333;51.306;17.056;2024-01-25T07:55:49;14.40;5.90;
69224;PMS1003;56333;51.306;17.056;2024-01-25T07:57:13;13.30;4.90;
69224;PMS1003;56333;51.306;17.056;2024-01-25T07:58:37;14.60;4.40;
69224;PMS1003;56333;51.306;17.056;2024-01-25T08:00:02;14.80;3.90;
69224;PMS1003;56333;51.306;17.056;2024-01-25T08:01:28;13.00;3.60;
69224;PMS1003;56333;51.306;17.056;2024-01-25T08:02:52;12.60;3.60;
69224;PMS1003;56333;51.306;17.056;2024-01-25T08:04:16;11.00;3.80;
69224;PMS1003;56333;51.306;17.056;2024-01-25T08:05:40;11.80;3.60;
69224;PMS1003;56333;51.306;17.056;2024-01-25T08:07:06;11.00;3.20;
69224;PMS1003;56333;51.306;17.056;2024-01-25T08:08:31;13.20;3.80;
69224;PMS1003;56333;51.306;17.056;2024-01-25T08:09:55;14.80;4.00;
69224;PMS1003;56333;51.306;17.056;2024-01-25T08:11:21;12.30;3.70;
69224;PMS1003;56333;51.306;17.056;2024-01-25T08:12:45;15.80;5.60;
69224;PMS1003;56333;51.306;17.056;2024-01-25T08:14:10;11.00;3.60;
69224;PMS1003;56333;51.306;17.056;2024-01-25T08:15:35;14.20;3.90;
69224;PMS1003;56333;51.306;17.056;2024-01-25T08:16:59;10.90;3.40;
69224;PMS1003;56333;51.306;17.056;2024-01-25T08:18:23;12.70;3.70;
69224;PMS1003;56333;51.306;17.056;2024-01-25T08:19:50;9.70;3.80;
69224;PMS1003;56333;51.306;17.056;2024-01-25T08:21:15;15.40;5.20;
69224;PMS1003;56333;51.306;17.056;2024-01-25T08:22:39;13.20;4.00;
69224;PMS1003;56333;51.306;17.056;2024-01-25T08:24:05;10.60;3.30;
69224;PMS1003;56333;51.306;17.056;2024-01-25T08:25:31;10.50;2.80;
69224;PMS1003;56333;51.306;17.056;2024-01-25T08:26:55;9.90;2.70;
69224;PMS1003;56333;51.306;17.056;2024-01-25T08:28:19;12.30;4.00;
69224;PMS1003;56333;51.306;17.056;2024-01-25T08:29:44;13.50;3.70;
69224;PMS1003;56333;51.306;17.056;2024-01-25T08:31:08;16.20;4.20;
69224;PMS1003;56333;51.306;17.056;2024-01-25T08:32:32;12.10;3.50;
69224;PMS1003;56333;51.306;17.056;2024-01-25T08:33:57;13.30;3.50;
69224;PMS1003;56333;51.306;17.056;2024-01-25T08:35:22;10.60;3.10;
69224;PMS1003;56333;51.306;17.056;2024-01-25T08:36:47;11.90;3.30;
69224;PMS1003;56333;51.306;17.056;2024-01-25T08:38:11;10.50;3.10;